createdAt,value
2022-09-22T00:01:33.375Z,4.75
2022-09-22T00:04:06.106Z,2.70
2022-09-22T00:06:37.715Z,3.80
2022-09-22T00:09:10.044Z,3.40
2022-09-22T00:11:41.019Z,2.00
2022-09-22T00:14:11.754Z,3.25
2022-09-22T00:16:42.687Z,4.22
2022-09-22T00:19:16.795Z,7.53
2022-09-22T00:21:45.212Z,5.10
2022-09-22T00:24:15.659Z,3.97
2022-09-22T00:26:44.237Z,3.38
2022-09-22T00:29:13.827Z,3.70
2022-09-22T00:31:43.427Z,2.22
2022-09-22T00:34:16.751Z,2.60
2022-09-22T00:36:45.499Z,5.00
2022-09-22T00:39:16.039Z,2.22
2022-09-22T00:41:46.563Z,1.30
2022-09-22T00:44:34.218Z,2.83
2022-09-22T00:47:07.790Z,2.15
2022-09-22T00:49:42.696Z,3.55
2022-09-22T00:52:12.643Z,1.63
2022-09-22T00:54:42.622Z,1.70
2022-09-22T00:57:15.627Z,3.20
2022-09-22T00:59:45.903Z,4.53
2022-09-22T01:02:14.610Z,1.65
2022-09-22T01:04:43.704Z,1.10
2022-09-22T01:07:14.120Z,3.25
2022-09-22T01:09:43.939Z,2.25
2022-09-22T01:12:13.172Z,2.63
2022-09-22T01:14:54.943Z,1.63
2022-09-22T01:17:30.991Z,1.98
2022-09-22T01:20:35.040Z,2.40
2022-09-22T01:23:39.914Z,2.42
2022-09-22T01:26:31.512Z,2.55
2022-09-22T01:29:26.439Z,1.55
2022-09-22T01:32:04.169Z,3.22
2022-09-22T01:34:38.000Z,2.95
2022-09-22T01:37:14.373Z,0.93
2022-09-22T01:39:46.903Z,2.10
2022-09-22T01:42:19.721Z,2.13
2022-09-22T01:44:53.219Z,3.40
2022-09-22T01:47:28.474Z,3.85
2022-09-22T01:50:02.006Z,2.83
2022-09-22T01:52:34.736Z,3.67
2022-09-22T01:55:07.683Z,2.20
2022-09-22T01:57:42.925Z,2.75
2022-09-22T02:00:12.792Z,2.17
2022-09-22T02:02:48.044Z,1.70
2022-09-22T02:05:22.407Z,3.55
2022-09-22T02:07:55.291Z,1.63
2022-09-22T02:10:31.859Z,0.97
2022-09-22T02:13:01.376Z,0.60
2022-09-22T02:15:47.796Z,1.70
2022-09-22T02:18:23.219Z,1.80
2022-09-22T02:20:52.039Z,1.15
2022-09-22T02:23:20.737Z,1.40
2022-09-22T02:25:50.823Z,3.50
2022-09-22T02:28:23.874Z,2.70
2022-09-22T02:31:18.597Z,2.35
2022-09-22T02:33:46.244Z,1.40
2022-09-22T02:36:32.314Z,1.73
2022-09-22T02:39:07.635Z,1.30
2022-09-22T02:41:47.448Z,1.25
2022-09-22T02:44:21.486Z,3.13
2022-09-22T02:46:57.326Z,1.38
2022-09-22T02:49:29.407Z,1.95
2022-09-22T02:51:58.016Z,2.33
2022-09-22T02:54:26.492Z,1.50
2022-09-22T02:56:55.247Z,2.60
2022-09-22T02:59:23.657Z,4.05
2022-09-22T03:01:52.031Z,3.00
2022-09-22T03:04:20.467Z,2.22
2022-09-22T03:06:50.663Z,3.25
2022-09-22T03:09:19.062Z,4.63
2022-09-22T03:11:48.444Z,3.08
2022-09-22T03:14:16.815Z,3.85
2022-09-22T03:16:45.475Z,3.45
2022-09-22T03:19:14.199Z,2.38
2022-09-22T03:21:42.871Z,5.03
2022-09-22T03:24:12.675Z,7.97
2022-09-22T03:26:41.106Z,3.97
2022-09-22T03:29:09.454Z,1.92
2022-09-22T03:31:37.852Z,1.58
2022-09-22T03:34:06.845Z,2.20
2022-09-22T03:36:35.440Z,3.50
2022-09-22T03:39:03.839Z,4.65
2022-09-22T03:41:33.933Z,2.65
2022-09-22T03:44:02.462Z,1.40
2022-09-22T03:46:31.209Z,2.83
2022-09-22T03:48:59.587Z,1.92
2022-09-22T03:51:28.060Z,2.35
2022-09-22T03:53:57.087Z,2.42
2022-09-22T03:56:25.545Z,4.25
2022-09-22T03:58:55.415Z,2.38
2022-09-22T04:01:23.936Z,5.15
2022-09-22T04:03:53.125Z,2.97
2022-09-22T04:06:21.672Z,4.18
2022-09-22T04:08:50.290Z,8.27
2022-09-22T04:11:18.634Z,7.15
2022-09-22T04:13:47.147Z,2.75
2022-09-22T04:16:17.277Z,4.05
2022-09-22T04:18:45.732Z,6.80
2022-09-22T04:21:14.347Z,5.53
2022-09-22T04:23:42.843Z,3.90
2022-09-22T04:26:11.254Z,4.65
2022-09-22T04:28:39.652Z,4.70
2022-09-22T04:31:08.284Z,6.90
2022-09-22T04:33:38.484Z,4.88
2022-09-22T04:36:07.695Z,4.30
2022-09-22T04:38:36.171Z,5.40
2022-09-22T04:41:04.623Z,6.30
2022-09-22T04:43:33.040Z,6.35
2022-09-22T04:46:01.936Z,5.15
2022-09-22T04:48:30.327Z,7.55
2022-09-22T04:51:00.125Z,4.68
2022-09-22T04:53:28.920Z,5.55
2022-09-22T04:55:57.632Z,8.18
2022-09-22T04:58:26.891Z,5.10
2022-09-22T05:00:56.026Z,6.13
2022-09-22T05:03:24.564Z,4.50
2022-09-22T05:05:52.989Z,5.72
2022-09-22T05:08:23.163Z,7.97
2022-09-22T05:10:51.549Z,5.78
2022-09-22T05:13:20.312Z,10.70
2022-09-22T05:15:48.661Z,10.20
2022-09-22T05:18:17.084Z,17.08
2022-09-22T05:20:46.015Z,10.68
2022-09-22T05:23:14.539Z,9.40
2022-09-22T05:25:44.402Z,8.73
2022-09-22T05:28:13.976Z,6.60
2022-09-22T05:30:42.482Z,5.10
2022-09-22T05:33:10.928Z,6.60
2022-09-22T05:35:39.284Z,7.45
2022-09-22T05:38:07.614Z,4.90
2022-09-22T05:40:35.999Z,6.22
2022-09-22T05:43:06.042Z,6.82
2022-09-22T05:45:34.427Z,4.30
2022-09-22T05:48:03.403Z,5.40
2022-09-22T05:50:31.897Z,4.78
2022-09-22T05:53:08.041Z,5.30
2022-09-22T05:55:37.085Z,3.90
2022-09-22T05:58:09.311Z,5.10
2022-09-22T06:00:38.266Z,5.47
2022-09-22T06:03:07.158Z,6.88
2022-09-22T06:05:38.150Z,6.65
2022-09-22T06:08:08.252Z,8.05
2022-09-22T06:10:39.099Z,3.33
2022-09-22T06:13:11.156Z,4.18
2022-09-22T06:15:40.225Z,4.30
2022-09-22T06:18:14.918Z,7.03
2022-09-22T06:20:44.728Z,2.70
2022-09-22T06:23:15.669Z,4.15
2022-09-22T06:25:44.408Z,5.28
2022-09-22T06:28:15.839Z,3.97
2022-09-22T06:30:44.559Z,4.97
2022-09-22T06:33:13.254Z,4.72
2022-09-22T06:35:43.138Z,4.88
2022-09-22T06:38:15.800Z,7.18
2022-09-22T06:40:45.418Z,3.28
2022-09-22T06:43:23.085Z,4.10
2022-09-22T06:45:52.477Z,3.88
2022-09-22T06:48:24.073Z,4.57
2022-09-22T06:50:54.992Z,4.53
2022-09-22T06:53:26.992Z,4.38
2022-09-22T06:55:55.856Z,6.05
2022-09-22T06:58:26.332Z,6.90
2022-09-22T07:00:54.857Z,8.40
2022-09-22T07:03:24.541Z,8.23
2022-09-22T07:05:56.780Z,9.20
2022-09-22T07:08:27.004Z,7.63
2022-09-22T07:10:57.005Z,6.15
2022-09-22T07:13:29.869Z,9.38
2022-09-22T07:16:01.674Z,8.45
2022-09-22T07:18:30.432Z,7.95
2022-09-22T07:21:03.870Z,7.43
2022-09-22T07:23:34.869Z,9.43
2022-09-22T07:26:04.933Z,7.20
2022-09-22T07:28:36.575Z,6.72
2022-09-22T07:31:06.586Z,6.20
2022-09-22T07:33:35.599Z,5.18
2022-09-22T07:36:05.888Z,4.13
2022-09-22T07:38:37.084Z,5.72
2022-09-22T07:41:07.581Z,3.47
2022-09-22T07:43:37.711Z,5.57
2022-09-22T07:46:06.791Z,4.68
2022-09-22T07:48:37.740Z,5.13
2022-09-22T07:51:12.974Z,4.13
2022-09-22T07:53:45.247Z,3.30
2022-09-22T07:56:15.272Z,4.03
2022-09-22T07:58:51.008Z,3.08
2022-09-22T08:01:20.983Z,4.03
2022-09-22T08:03:49.522Z,5.38
2022-09-22T08:06:20.227Z,1.42
2022-09-22T08:08:53.770Z,2.00
2022-09-22T08:11:24.761Z,4.55
2022-09-22T08:13:57.304Z,3.78
2022-09-22T08:16:28.511Z,4.70
2022-09-22T08:18:58.083Z,5.85
2022-09-22T08:21:27.307Z,2.40
2022-09-22T08:23:55.803Z,2.65
2022-09-22T08:26:24.387Z,3.65
2022-09-22T08:28:55.147Z,4.05
2022-09-22T08:31:24.445Z,1.85
2022-09-22T08:33:53.403Z,1.92
2022-09-22T08:36:22.879Z,4.70
2022-09-22T08:38:51.942Z,6.38
2022-09-22T08:41:28.046Z,5.00
2022-09-22T08:44:00.715Z,6.88
2022-09-22T08:46:31.629Z,5.68
2022-09-22T08:49:23.868Z,4.22
2022-09-22T08:51:56.412Z,4.03
2022-09-22T08:54:28.977Z,3.08
2022-09-22T08:57:19.791Z,3.00
2022-09-22T08:59:54.244Z,3.65
2022-09-22T09:02:42.219Z,3.10
2022-09-22T09:05:49.591Z,2.15
2022-09-22T09:08:41.700Z,2.60
2022-09-22T09:14:08.763Z,4.13
2022-09-22T09:16:47.521Z,2.40
2022-09-22T09:19:20.636Z,2.70
2022-09-22T09:21:55.397Z,6.53
2022-09-22T09:27:24.721Z,2.10
2022-09-22T09:30:01.667Z,2.65
2022-09-22T09:32:40.347Z,3.30
2022-09-22T09:35:14.652Z,2.95
2022-09-22T09:37:44.729Z,2.75
2022-09-22T09:40:18.449Z,3.17
2022-09-22T09:42:49.176Z,3.30
2022-09-22T09:45:24.170Z,2.95
2022-09-22T09:48:07.152Z,3.33
2022-09-22T09:50:38.116Z,2.08
2022-09-22T09:53:08.689Z,2.60
2022-09-22T09:55:37.127Z,2.97
2022-09-22T09:58:35.435Z,1.55
2022-09-22T10:01:03.487Z,3.70
2022-09-22T10:03:36.594Z,8.38
2022-09-22T10:06:07.917Z,2.50
2022-09-22T10:08:45.024Z,4.13
2022-09-22T10:11:15.241Z,2.80
2022-09-22T10:13:45.922Z,2.20
2022-09-22T10:16:23.189Z,1.95
2022-09-22T10:19:03.880Z,2.35
2022-09-22T10:21:32.436Z,1.40
2022-09-22T10:24:02.079Z,2.65
2022-09-22T10:26:33.371Z,1.10
2022-09-22T10:29:18.371Z,1.05
2022-09-22T10:32:15.082Z,1.45
2022-09-22T10:34:47.029Z,1.83
2022-09-22T10:37:17.047Z,0.85
2022-09-22T10:39:48.396Z,1.25
2022-09-22T10:42:35.043Z,1.60
2022-09-22T10:45:07.243Z,1.00
2022-09-22T10:47:51.524Z,0.70
2022-09-22T10:50:53.080Z,1.42
2022-09-22T10:53:37.850Z,1.77
2022-09-22T10:56:14.975Z,6.22
2022-09-22T10:59:09.480Z,3.20
2022-09-22T11:01:54.068Z,1.60
2022-09-22T11:04:45.301Z,0.90
2022-09-22T11:07:55.624Z,1.67
2022-09-22T11:10:53.367Z,2.03
2022-09-22T11:13:36.607Z,4.13
2022-09-22T11:16:22.634Z,3.88
2022-09-22T11:19:19.547Z,3.28
2022-09-22T11:22:04.328Z,3.13
2022-09-22T11:24:47.385Z,1.35
2022-09-22T11:27:23.981Z,1.53
2022-09-22T11:30:11.304Z,0.70
2022-09-22T11:33:12.116Z,2.88
2022-09-22T11:35:57.555Z,2.08
2022-09-22T11:38:39.572Z,2.08
2022-09-22T11:41:26.124Z,1.05
2022-09-22T11:44:11.667Z,1.02
2022-09-22T11:46:59.641Z,2.10
2022-09-22T11:49:40.167Z,1.05
2022-09-22T11:52:22.787Z,1.30
2022-09-22T11:55:10.163Z,1.00
2022-09-22T11:57:45.618Z,0.95
2022-09-22T12:00:17.652Z,0.55
2022-09-22T12:02:51.041Z,1.30
2022-09-22T12:05:27.115Z,3.72
2022-09-22T12:07:59.936Z,1.52
2022-09-22T12:10:35.950Z,2.07
2022-09-22T12:13:11.202Z,1.05
2022-09-22T12:15:49.309Z,3.67
2022-09-22T12:18:25.492Z,0.93
2022-09-22T12:21:00.052Z,2.88
2022-09-22T12:23:40.526Z,1.33
2022-09-22T12:26:11.296Z,1.42
2022-09-22T12:28:43.633Z,1.35
2022-09-22T12:31:15.465Z,1.27
2022-09-22T12:33:49.094Z,1.05
2022-09-22T12:36:18.936Z,4.18
2022-09-22T12:38:47.900Z,0.95
2022-09-22T12:41:21.515Z,0.43
2022-09-22T12:46:28.120Z,0.80
2022-09-22T12:48:56.640Z,2.88
2022-09-22T12:51:34.174Z,0.50
2022-09-22T12:54:48.309Z,1.08
2022-09-22T12:57:45.060Z,0.60
2022-09-22T13:00:39.805Z,1.15
2022-09-22T13:03:42.227Z,1.30
2022-09-22T13:06:43.644Z,0.57
2022-09-22T13:09:24.395Z,4.10
2022-09-22T13:12:28.242Z,2.28
2022-09-22T13:15:24.928Z,0.57
2022-09-22T13:17:55.201Z,0.85
2022-09-22T13:20:32.023Z,1.05
2022-09-22T13:23:05.966Z,5.80
2022-09-22T13:25:34.556Z,0.75
2022-09-22T13:28:12.054Z,0.90
2022-09-22T13:30:42.497Z,1.05
2022-09-22T13:33:24.231Z,0.98
2022-09-22T13:36:03.680Z,1.95
2022-09-22T13:38:34.918Z,1.33
2022-09-22T13:41:04.630Z,0.93
2022-09-22T13:43:37.487Z,0.50
2022-09-22T13:46:07.732Z,1.67
2022-09-22T13:48:39.791Z,0.77
2022-09-22T13:51:10.567Z,0.63
2022-09-22T13:53:40.051Z,0.60
2022-09-22T13:56:21.365Z,0.95
2022-09-22T13:58:52.403Z,1.08
2022-09-22T14:01:22.818Z,4.30
2022-09-22T14:03:54.036Z,2.80
2022-09-22T14:06:25.073Z,0.98
2022-09-22T14:08:55.224Z,0.50
2022-09-22T14:11:26.028Z,1.02
2022-09-22T14:14:02.383Z,0.80
2022-09-22T14:16:37.301Z,1.02
2022-09-22T14:19:15.339Z,1.38
2022-09-22T14:21:50.870Z,1.40
2022-09-22T14:24:20.019Z,2.05
2022-09-22T14:26:51.008Z,1.17
2022-09-22T14:29:24.830Z,0.88
2022-09-22T14:32:00.485Z,0.45
2022-09-22T14:34:33.053Z,1.02
2022-09-22T14:37:11.690Z,1.05
2022-09-22T14:39:42.411Z,3.15
2022-09-22T14:42:17.920Z,2.03
2022-09-22T14:44:48.858Z,0.40
2022-09-22T14:47:27.103Z,0.95
2022-09-22T14:50:11.459Z,1.60
2022-09-22T14:52:44.736Z,1.35
2022-09-22T14:55:21.886Z,0.73
2022-09-22T14:57:52.669Z,1.10
2022-09-22T15:00:38.492Z,2.45
2022-09-22T15:03:21.624Z,0.90
2022-09-22T15:05:51.692Z,3.67
2022-09-22T15:08:25.304Z,1.05
2022-09-22T15:10:55.384Z,2.35
2022-09-22T15:13:38.123Z,1.25
2022-09-22T15:16:07.760Z,1.10
2022-09-22T15:18:36.271Z,1.25
2022-09-22T15:21:12.868Z,1.73
2022-09-22T15:23:45.011Z,1.00
2022-09-22T15:26:20.672Z,0.50
2022-09-22T15:28:52.772Z,2.25
2022-09-22T15:31:26.859Z,1.10
2022-09-22T15:33:56.372Z,0.93
2022-09-22T15:36:26.748Z,0.95
2022-09-22T15:39:00.118Z,1.05
2022-09-22T15:41:29.258Z,1.23
2022-09-22T15:43:58.052Z,0.75
2022-09-22T15:46:34.068Z,0.82
2022-09-22T15:49:06.445Z,1.45
2022-09-22T15:51:37.148Z,2.08
2022-09-22T15:54:14.407Z,1.15
2022-09-22T15:56:43.283Z,0.95
2022-09-22T15:59:18.940Z,4.63
2022-09-22T16:01:47.514Z,2.97
2022-09-22T16:04:16.440Z,3.65
2022-09-22T16:06:54.412Z,4.97
2022-09-22T16:09:23.151Z,3.17
2022-09-22T16:11:51.975Z,0.82
2022-09-22T16:14:22.339Z,2.58
2022-09-22T16:16:52.524Z,2.28
2022-09-22T16:19:21.219Z,2.78
2022-09-22T16:21:54.259Z,4.90
2022-09-22T16:24:23.240Z,5.30
2022-09-22T16:26:52.720Z,3.95
2022-09-22T16:29:21.342Z,1.10
2022-09-22T16:31:50.166Z,2.35
2022-09-22T16:34:18.781Z,1.40
2022-09-22T16:36:47.692Z,2.47
2022-09-22T16:39:18.852Z,8.18
2022-09-22T16:41:48.267Z,2.85
2022-09-22T16:44:17.087Z,4.55
2022-09-22T16:46:45.690Z,2.75
2022-09-22T16:49:16.464Z,2.03
2022-09-22T16:51:46.881Z,6.05
2022-09-22T16:54:17.872Z,3.08
2022-09-22T16:56:47.436Z,3.30
2022-09-22T16:59:18.128Z,2.65
2022-09-22T17:01:47.057Z,3.80
2022-09-22T17:04:18.691Z,3.35
2022-09-22T17:06:48.279Z,3.63
2022-09-22T17:09:19.083Z,5.10
2022-09-22T17:11:49.322Z,2.75
2022-09-22T17:14:22.214Z,2.13
2022-09-22T17:16:52.430Z,2.80
2022-09-22T17:19:22.361Z,36.58
2022-09-22T17:21:55.557Z,26.17
2022-09-22T17:24:26.666Z,15.30
2022-09-22T17:26:56.949Z,7.00
2022-09-22T17:29:27.090Z,9.25
2022-09-22T17:31:58.007Z,14.57
2022-09-22T17:34:29.021Z,4.60
2022-09-22T17:36:58.215Z,6.50
2022-09-22T17:39:29.744Z,6.93
2022-09-22T17:41:58.625Z,3.88
2022-09-22T17:44:28.719Z,6.18
2022-09-22T17:47:14.181Z,3.42
2022-09-22T17:49:59.678Z,7.85
2022-09-22T17:52:42.247Z,5.18
2022-09-22T17:55:16.704Z,7.82
2022-09-22T17:58:52.742Z,4.78
2022-09-22T18:01:22.973Z,9.57
2022-09-22T18:03:53.104Z,7.30
2022-09-22T18:06:22.677Z,6.07
2022-09-22T18:08:53.135Z,4.22
2022-09-22T18:11:28.132Z,3.75
2022-09-22T18:13:57.991Z,3.25
2022-09-22T18:16:33.673Z,4.53
2022-09-22T18:19:05.847Z,6.10
2022-09-22T18:21:36.273Z,8.13
2022-09-22T18:24:07.359Z,6.47
2022-09-22T18:26:43.707Z,5.88
2022-09-22T18:29:15.138Z,5.07
2022-09-22T18:31:45.953Z,6.03
2022-09-22T18:34:16.927Z,6.68
2022-09-22T18:36:48.536Z,4.60
2022-09-22T18:39:19.269Z,3.58
2022-09-22T18:41:50.997Z,5.75
2022-09-22T18:44:20.637Z,9.05
2022-09-22T18:46:50.557Z,4.78
2022-09-22T18:49:19.267Z,5.18
2022-09-22T18:51:50.540Z,15.40
2022-09-22T18:54:21.967Z,10.90
2022-09-22T18:56:52.433Z,7.28
2022-09-22T18:59:23.601Z,5.50
2022-09-22T19:01:53.757Z,6.57
2022-09-22T19:04:25.666Z,8.55
2022-09-22T19:07:14.413Z,11.85
2022-09-22T19:09:44.962Z,8.85
2022-09-22T19:12:17.032Z,8.00
2022-09-22T19:14:46.864Z,7.00
2022-09-22T19:17:17.704Z,7.30
2022-09-22T19:19:48.184Z,10.05
2022-09-22T19:22:18.288Z,14.05
2022-09-22T19:24:48.322Z,12.70
2022-09-22T19:30:11.653Z,8.75
2022-09-22T19:32:42.679Z,7.13
2022-09-22T19:35:12.846Z,7.80
2022-09-22T19:37:42.795Z,7.63
2022-09-22T19:40:19.120Z,7.97
2022-09-22T19:42:48.862Z,8.70
2022-09-22T19:45:20.202Z,7.75
2022-09-22T19:47:49.975Z,8.48
2022-09-22T19:50:20.558Z,7.93
2022-09-22T19:52:51.417Z,10.77
2022-09-22T19:55:22.676Z,14.30
2022-09-22T19:57:52.882Z,9.00
2022-09-22T20:00:26.970Z,8.95
2022-09-22T20:03:00.354Z,8.93
2022-09-22T20:05:32.150Z,6.70
2022-09-22T20:08:01.789Z,5.88
2022-09-22T20:11:16.332Z,7.75
2022-09-22T20:14:02.215Z,6.32
2022-09-22T20:16:32.939Z,6.00
2022-09-22T20:19:01.384Z,5.18
2022-09-22T20:21:30.580Z,5.22
2022-09-22T20:23:58.939Z,4.10
2022-09-22T20:26:27.451Z,5.10
2022-09-22T20:28:57.081Z,4.18
2022-09-22T20:31:25.554Z,7.15
2022-09-22T20:33:56.084Z,4.63
2022-09-22T20:36:24.632Z,3.35
2022-09-22T20:38:53.583Z,2.63
2022-09-22T20:41:23.742Z,3.38
2022-09-22T20:43:52.632Z,5.15
2022-09-22T20:46:21.513Z,2.53
2022-09-22T20:48:49.926Z,3.90
2022-09-22T20:51:19.670Z,2.58
2022-09-22T20:53:48.489Z,3.40
2022-09-22T20:56:16.995Z,16.58
2022-09-22T20:58:47.260Z,4.13
2022-09-22T21:01:18.503Z,5.75
2022-09-22T21:03:46.839Z,5.47
2022-09-22T21:06:16.053Z,4.25
2022-09-22T21:09:18.167Z,7.30
2022-09-22T21:11:47.155Z,4.50
2022-09-22T21:14:16.170Z,4.18
2022-09-22T21:16:45.087Z,4.28
2022-09-22T21:19:13.524Z,6.03
2022-09-22T21:21:41.973Z,5.05
2022-09-22T21:24:11.763Z,4.75
2022-09-22T21:26:40.164Z,6.55
2022-09-22T21:29:09.689Z,4.43
2022-09-22T21:31:38.916Z,7.15
2022-09-22T21:34:07.306Z,4.32
2022-09-22T21:36:36.589Z,5.05
2022-09-22T21:39:05.112Z,4.85
2022-09-22T21:41:35.560Z,3.88
2022-09-22T21:44:05.288Z,4.90
2022-09-22T21:46:36.261Z,4.50
2022-09-22T21:49:06.968Z,7.50
2022-09-22T21:51:36.679Z,5.05
2022-09-22T21:54:07.329Z,3.65
2022-09-22T21:56:37.344Z,4.05
2022-09-22T21:59:05.931Z,3.97
2022-09-22T22:01:36.657Z,4.07
2022-09-22T22:04:08.597Z,3.70
2022-09-22T22:06:40.963Z,4.85
2022-09-22T22:09:14.778Z,5.72
2022-09-22T22:14:15.720Z,4.03
2022-09-22T22:16:45.860Z,4.93
2022-09-22T22:19:15.593Z,5.05
2022-09-22T22:21:44.646Z,6.55
2022-09-22T22:24:29.136Z,5.85
2022-09-22T22:27:01.628Z,5.65
2022-09-22T22:29:32.464Z,5.75
2022-09-22T22:32:01.032Z,5.03
2022-09-22T22:34:29.468Z,4.68
2022-09-22T22:36:59.360Z,5.05
2022-09-22T22:39:28.122Z,4.50
2022-09-22T22:41:56.484Z,7.05
2022-09-22T22:44:26.754Z,2.80
2022-09-22T22:46:55.159Z,4.07
2022-09-22T22:49:24.160Z,4.00
2022-09-22T22:51:52.797Z,3.70
2022-09-22T22:54:21.225Z,5.30
2022-09-22T22:56:51.523Z,6.43
2022-09-22T22:59:20.929Z,3.67
2022-09-22T23:01:50.913Z,3.35
2022-09-22T23:04:19.591Z,2.75
2022-09-22T23:06:48.617Z,4.35
2022-09-22T23:09:19.048Z,2.58
2022-09-22T23:11:47.963Z,3.15
2022-09-22T23:14:17.263Z,2.30
2022-09-22T23:16:47.403Z,5.22
2022-09-22T23:19:19.652Z,6.05
2022-09-22T23:21:48.165Z,3.35
2022-09-22T23:24:19.263Z,2.72
2022-09-22T23:26:48.645Z,4.88
2022-09-22T23:29:17.150Z,4.53
2022-09-22T23:31:46.064Z,3.33
2022-09-22T23:34:14.545Z,3.17
2022-09-22T23:36:44.981Z,2.38
2022-09-22T23:39:13.844Z,1.95
2022-09-22T23:41:43.206Z,3.60
2022-09-22T23:44:12.527Z,2.67
2022-09-22T23:46:41.270Z,2.83
2022-09-22T23:49:09.594Z,1.92
2022-09-22T23:51:38.284Z,2.33
2022-09-22T23:54:08.948Z,5.10
2022-09-22T23:56:37.997Z,2.25
2022-09-22T23:59:06.714Z,2.42
